createdAt,value
2023-03-10T00:01:12.850Z,10.07
2023-03-10T00:03:47.679Z,9.77
2023-03-10T00:06:23.019Z,10.23
2023-03-10T00:08:57.331Z,10.93
2023-03-10T00:11:31.940Z,11.83
2023-03-10T00:14:05.351Z,11.50
2023-03-10T00:16:38.787Z,10.73
2023-03-10T00:19:12.358Z,10.83
2023-03-10T00:21:46.222Z,12.23
2023-03-10T00:24:19.743Z,10.53
2023-03-10T00:26:54.159Z,12.93
2023-03-10T00:29:28.172Z,12.97
2023-03-10T00:32:01.791Z,10.30
2023-03-10T00:34:37.690Z,11.30
2023-03-10T00:37:10.807Z,11.47
2023-03-10T00:39:44.429Z,11.70
2023-03-10T00:42:17.821Z,13.03
2023-03-10T00:44:53.470Z,9.87
2023-03-10T00:47:28.505Z,12.43
2023-03-10T00:50:01.982Z,11.93
2023-03-10T00:52:36.982Z,11.17
2023-03-10T00:55:13.775Z,10.90
2023-03-10T00:57:47.404Z,12.20
2023-03-10T01:00:24.599Z,14.10
2023-03-10T01:02:58.701Z,14.30
2023-03-10T01:05:32.388Z,16.97
2023-03-10T01:08:05.694Z,12.63
2023-03-10T01:10:39.137Z,11.70
2023-03-10T01:13:14.251Z,12.90
2023-03-10T01:15:49.302Z,13.70
2023-03-10T01:18:23.416Z,11.63
2023-03-10T01:20:57.785Z,11.43
2023-03-10T01:23:32.207Z,12.80
2023-03-10T01:26:05.343Z,12.13
2023-03-10T01:28:38.903Z,13.53
2023-03-10T01:31:13.345Z,14.40
2023-03-10T01:33:49.828Z,14.13
2023-03-10T01:36:25.967Z,13.15
2023-03-10T01:39:00.628Z,13.57
2023-03-10T01:41:34.773Z,11.53
2023-03-10T01:44:14.429Z,13.67
2023-03-10T01:46:51.358Z,13.70
2023-03-10T01:49:40.787Z,14.03
2023-03-10T01:52:19.686Z,17.03
2023-03-10T01:54:59.060Z,19.30
2023-03-10T01:57:36.558Z,17.17
2023-03-10T02:00:15.033Z,18.30
2023-03-10T02:02:59.270Z,14.15
2023-03-10T02:05:33.950Z,16.23
2023-03-10T02:08:10.668Z,14.83
2023-03-10T02:10:44.187Z,12.93
2023-03-10T02:13:19.613Z,14.33
2023-03-10T02:15:54.563Z,16.00
2023-03-10T02:18:29.977Z,16.00
2023-03-10T02:21:11.268Z,12.87
2023-03-10T02:24:01.011Z,14.77
2023-03-10T02:26:44.480Z,15.20
2023-03-10T02:29:23.805Z,15.13
2023-03-10T02:31:58.486Z,11.90
2023-03-10T02:34:32.996Z,13.80
2023-03-10T02:37:06.464Z,15.50
2023-03-10T02:39:40.088Z,12.47
2023-03-10T02:42:15.108Z,13.30
2023-03-10T02:44:50.220Z,12.60
2023-03-10T02:47:24.341Z,13.23
2023-03-10T02:49:58.336Z,14.73
2023-03-10T02:52:36.448Z,14.33
2023-03-10T02:55:15.991Z,13.40
2023-03-10T02:57:50.602Z,13.40
2023-03-10T03:00:25.635Z,12.67
2023-03-10T03:02:59.395Z,12.83
2023-03-10T03:05:33.142Z,14.40
2023-03-10T03:08:08.394Z,13.53
2023-03-10T03:10:42.378Z,16.00
2023-03-10T03:13:17.318Z,15.07
2023-03-10T03:15:51.393Z,13.90
2023-03-10T03:18:25.429Z,12.10
2023-03-10T03:20:59.417Z,15.13
2023-03-10T03:23:32.832Z,13.40
2023-03-10T03:26:14.906Z,15.07
2023-03-10T03:28:48.490Z,12.37
2023-03-10T03:31:26.893Z,14.90
2023-03-10T03:34:12.199Z,12.80
2023-03-10T03:36:45.926Z,12.07
2023-03-10T03:39:21.001Z,14.83
2023-03-10T03:41:58.677Z,17.00
2023-03-10T03:44:35.166Z,19.77
2023-03-10T03:47:10.687Z,23.00
2023-03-10T03:49:44.880Z,30.70
2023-03-10T03:52:18.266Z,25.93
2023-03-10T03:54:51.851Z,27.60
2023-03-10T03:57:25.984Z,29.37
2023-03-10T04:00:00.158Z,27.43
2023-03-10T04:02:34.674Z,24.97
2023-03-10T04:05:10.670Z,27.03
2023-03-10T04:07:44.692Z,28.03
2023-03-10T04:10:21.513Z,25.70
2023-03-10T04:12:54.957Z,25.40
2023-03-10T04:15:29.742Z,24.63
2023-03-10T04:18:04.411Z,25.50
2023-03-10T04:20:38.214Z,26.10
2023-03-10T04:23:12.425Z,25.47
2023-03-10T04:25:48.687Z,24.53
2023-03-10T04:28:23.181Z,26.63
2023-03-10T04:30:57.163Z,33.37
2023-03-10T04:33:33.245Z,31.23
2023-03-10T04:36:08.936Z,27.50
2023-03-10T04:38:42.697Z,22.57
2023-03-10T04:41:17.877Z,24.90
2023-03-10T04:43:52.494Z,24.60
2023-03-10T04:46:26.020Z,23.10
2023-03-10T04:48:59.694Z,24.00
2023-03-10T04:51:33.085Z,25.60
2023-03-10T04:54:06.684Z,25.40
2023-03-10T04:56:40.282Z,23.53
2023-03-10T04:59:15.117Z,23.30
2023-03-10T05:01:48.825Z,21.97
2023-03-10T05:04:23.149Z,21.33
2023-03-10T05:06:57.236Z,24.40
2023-03-10T05:09:38.235Z,25.23
2023-03-10T05:12:13.376Z,26.80
2023-03-10T05:14:47.762Z,24.63
2023-03-10T05:17:21.769Z,25.53
2023-03-10T05:19:55.241Z,25.50
2023-03-10T05:22:28.507Z,24.37
2023-03-10T05:25:02.228Z,26.77
2023-03-10T05:27:37.817Z,25.00
2023-03-10T05:30:16.211Z,27.47
2023-03-10T05:32:52.158Z,26.93
2023-03-10T05:35:27.230Z,30.00
2023-03-10T17:35:29.250Z,16.27
2023-03-10T17:38:02.950Z,14.73
2023-03-10T17:40:35.690Z,13.72
2023-03-10T17:43:29.598Z,15.87
2023-03-10T17:46:01.502Z,13.00
2023-03-10T17:48:34.870Z,13.25
2023-03-10T17:51:07.838Z,12.03
2023-03-10T17:53:40.428Z,12.40
2023-03-10T17:56:13.191Z,14.58
2023-03-10T17:58:45.767Z,10.48
2023-03-10T18:01:19.670Z,10.65
2023-03-10T18:03:52.360Z,10.88
2023-03-10T18:06:25.964Z,10.95
2023-03-10T18:08:59.431Z,10.55
2023-03-10T18:11:32.126Z,10.25
2023-03-10T18:14:04.615Z,12.55
2023-03-10T18:16:44.038Z,14.45
2023-03-10T18:19:17.861Z,13.78
2023-03-10T18:21:51.167Z,15.35
2023-03-10T18:24:24.119Z,12.53
2023-03-10T18:26:57.415Z,14.00
2023-03-10T18:29:29.986Z,13.98
2023-03-10T18:32:02.786Z,16.57
2023-03-10T18:34:35.547Z,15.98
2023-03-10T18:37:08.325Z,13.83
2023-03-10T18:39:41.435Z,16.02
2023-03-10T18:42:14.298Z,15.78
2023-03-10T18:44:48.099Z,15.10
2023-03-10T18:47:21.294Z,14.33
2023-03-10T18:49:55.322Z,15.05
2023-03-10T18:52:27.873Z,13.10
2023-03-10T18:55:01.474Z,13.00
2023-03-10T18:57:34.254Z,13.88
2023-03-10T19:00:08.968Z,13.88
2023-03-10T19:02:42.108Z,15.10
2023-03-10T19:05:16.089Z,13.88
2023-03-10T19:07:50.295Z,13.50
2023-03-10T19:10:24.709Z,16.45
2023-03-10T19:12:58.007Z,13.45
2023-03-10T19:15:31.293Z,18.77
2023-03-10T19:18:04.088Z,16.12
2023-03-10T19:20:36.860Z,17.10
2023-03-10T19:23:09.801Z,17.32
2023-03-10T19:25:42.622Z,15.88
2023-03-10T19:28:15.404Z,17.55
2023-03-10T19:30:47.985Z,15.88
2023-03-10T19:33:20.624Z,16.00
2023-03-10T19:36:01.204Z,16.67
2023-03-10T19:38:35.340Z,19.62
2023-03-10T19:41:11.943Z,13.75
2023-03-10T19:43:44.935Z,14.70
2023-03-10T19:46:20.510Z,16.05
2023-03-10T19:48:53.209Z,16.15
2023-03-10T19:51:27.135Z,16.85
2023-03-10T19:54:03.099Z,16.70
2023-03-10T19:56:35.903Z,17.12
2023-03-10T19:59:09.044Z,15.23
2023-03-10T20:01:42.662Z,15.68
2023-03-10T20:04:15.012Z,14.58
2023-03-10T20:06:47.856Z,15.38
2023-03-10T20:09:20.576Z,17.50
2023-03-10T20:11:53.156Z,17.10
2023-03-10T20:14:26.146Z,15.40
2023-03-10T20:16:59.735Z,16.20
2023-03-10T20:19:32.310Z,13.90
2023-03-10T20:22:04.991Z,13.90
2023-03-10T20:24:37.514Z,15.08
2023-03-10T20:27:09.881Z,16.32
2023-03-10T20:29:43.431Z,15.48
2023-03-10T20:32:16.081Z,14.40
2023-03-10T20:34:51.051Z,15.80
2023-03-10T20:37:26.896Z,13.65
2023-03-10T20:39:59.749Z,17.15
2023-03-10T20:42:34.963Z,13.85
2023-03-10T20:45:09.334Z,14.65
2023-03-10T20:47:41.917Z,13.20
2023-03-10T20:50:16.731Z,17.17
2023-03-10T20:52:49.513Z,13.93
2023-03-10T20:55:23.344Z,14.83
2023-03-10T20:57:57.890Z,15.72
2023-03-10T21:00:31.756Z,15.13
2023-03-10T21:03:04.531Z,14.98
2023-03-10T21:05:37.307Z,14.23
2023-03-10T21:08:10.085Z,13.08
2023-03-10T21:10:49.315Z,15.05
2023-03-10T21:13:22.501Z,14.78
2023-03-10T21:15:54.986Z,14.78
2023-03-10T21:18:27.557Z,17.40
2023-03-10T21:21:07.322Z,14.93
2023-03-10T21:23:46.845Z,16.25
2023-03-10T21:26:22.598Z,13.88
2023-03-10T21:28:56.581Z,15.00
2023-03-10T21:31:29.336Z,14.30
2023-03-10T21:34:02.300Z,13.60
2023-03-10T21:36:35.461Z,14.98
2023-03-10T21:39:09.874Z,15.80
2023-03-10T21:41:42.669Z,17.82
2023-03-10T21:44:17.076Z,17.57
2023-03-10T21:46:50.934Z,18.02
2023-03-10T21:49:23.872Z,19.60
2023-03-10T21:51:56.861Z,18.23
2023-03-10T21:54:29.457Z,18.17
2023-03-10T21:57:02.205Z,16.23
2023-03-10T21:59:35.600Z,17.27
2023-03-10T22:02:08.792Z,17.02
2023-03-10T22:04:41.404Z,19.50
2023-03-10T22:07:14.156Z,18.32
2023-03-10T22:09:47.212Z,18.07
2023-03-10T22:12:20.125Z,17.90
2023-03-10T22:14:56.617Z,16.60
2023-03-10T22:17:29.368Z,17.87
2023-03-10T22:20:02.361Z,16.27
2023-03-10T22:22:35.146Z,16.73
2023-03-10T22:25:09.446Z,17.65
2023-03-10T22:27:42.126Z,16.57
2023-03-10T22:30:15.929Z,17.98
2023-03-10T22:32:49.983Z,15.35
2023-03-10T22:35:24.024Z,15.13
2023-03-10T22:37:56.558Z,18.30
2023-03-10T22:40:29.297Z,17.10
2023-03-10T22:43:03.111Z,17.25
2023-03-10T22:45:38.953Z,18.52
2023-03-10T22:48:11.947Z,17.52
2023-03-10T22:50:46.973Z,17.73
2023-03-10T22:53:21.393Z,20.72
2023-03-10T22:55:55.194Z,17.98
2023-03-10T22:58:29.090Z,18.57
2023-03-10T23:01:01.782Z,17.87
2023-03-10T23:03:35.787Z,17.35
2023-03-10T23:16:07.666Z,15.30
2023-03-10T23:18:40.392Z,18.05
2023-03-10T23:21:18.499Z,16.45
2023-03-10T23:23:52.505Z,16.97
2023-03-10T23:26:25.284Z,18.67
2023-03-10T23:28:57.871Z,19.35
2023-03-10T23:31:31.178Z,17.32
2023-03-10T23:34:03.628Z,17.05
2023-03-10T23:36:36.406Z,17.55
2023-03-10T23:39:11.673Z,17.77
2023-03-10T23:41:45.649Z,19.42
2023-03-10T23:44:23.146Z,18.80
2023-03-10T23:46:56.942Z,19.42
2023-03-10T23:49:33.423Z,19.77
2023-03-10T23:52:07.453Z,20.37
2023-03-10T23:54:40.216Z,20.17
2023-03-10T23:57:19.538Z,21.35
2023-03-10T23:59:55.187Z,24.18
